AIB215 KSYR-KSYR
Flight info
| Callsign | AIB215 |
|---|---|
| Flight time | 0h 12m |
| Altitude | 5000 |
| Route | DCT |
| Aircraft | A35K/H-SDE2E3GHIJ3J4J5LM1ORWXY/LB1D1 |
Departure
| Time | 2026-04-24 03:39 |
|---|---|
| Airport | Syracuse Hancock International Airport (KSYR) |
Arrival
| Time | 2026-04-24 03:51 |
|---|---|
| Airport | Syracuse Hancock International Airport (KSYR) |
| Time | Latitude | Longitude | Altitude | Speed | Heading |
|---|---|---|---|---|---|
| 2026-04-24 03:20 | 43.11097 | -76.12247 | 417 ft | 0 kts | 358° |
| 2026-04-24 03:29 | 43.11089 | -76.12247 | 417 ft | 2 kts | 358° |
| 2026-04-24 03:30 | 43.11075 | -76.12246 | 422 ft | 3 kts | 14° |
| 2026-04-24 03:30 | 43.11061 | -76.12257 | 417 ft | 3 kts | 66° |
| 2026-04-24 03:30 | 43.11056 | -76.12282 | 417 ft | 3 kts | 87° |
| 2026-04-24 03:30 | 43.11055 | -76.12303 | 417 ft | 1 kts | 88° |
| 2026-04-24 03:31 | 43.11055 | -76.12304 | 417 ft | 0 kts | 88° |
| 2026-04-24 03:34 | 43.11055 | -76.12300 | 417 ft | 2 kts | 88° |
| 2026-04-24 03:34 | 43.11056 | -76.12271 | 417 ft | 4 kts | 88° |
| 2026-04-24 03:34 | 43.11052 | -76.12224 | 422 ft | 5 kts | 110° |
| 2026-04-24 03:35 | 43.11028 | -76.12193 | 417 ft | 7 kts | 148° |
| 2026-04-24 03:35 | 43.10979 | -76.12187 | 416 ft | 4 kts | 221° |
| 2026-04-24 03:35 | 43.10961 | -76.12242 | 421 ft | 11 kts | 254° |
| 2026-04-24 03:35 | 43.10952 | -76.12399 | 425 ft | 18 kts | 267° |
| 2026-04-24 03:36 | 43.10946 | -76.12560 | 421 ft | 12 kts | 268° |
| 2026-04-24 03:36 | 43.10939 | -76.12598 | 417 ft | 0 kts | 239° |
| 2026-04-24 03:36 | 43.10935 | -76.12605 | 417 ft | 2 kts | 230° |
| 2026-04-24 03:37 | 43.10910 | -76.12621 | 419 ft | 5 kts | 193° |
| 2026-04-24 03:37 | 43.10872 | -76.12609 | 425 ft | 7 kts | 156° |
| 2026-04-24 03:37 | 43.10829 | -76.12562 | 422 ft | 9 kts | 129° |
| 2026-04-24 03:37 | 43.10807 | -76.12493 | 422 ft | 8 kts | 103° |
| 2026-04-24 03:38 | 43.10809 | -76.12454 | 425 ft | 0 kts | 77° |
| 2026-04-24 03:38 | 43.10818 | -76.12403 | 425 ft | 25 kts | 77° |
| 2026-04-24 03:38 | 43.10867 | -76.11872 | 419 ft | 90 kts | 88° |
| 2026-04-24 03:38 | 43.10888 | -76.10732 | 428 ft | 148 kts | 88° |
| 2026-04-24 03:39 | 43.10943 | -76.09204 | 878 ft | 160 kts | 85° |
| 2026-04-24 03:39 | 43.10982 | -76.07641 | 1478 ft | 170 kts | 86° |
| 2026-04-24 03:39 | 43.11001 | -76.05925 | 1890 ft | 191 kts | 86° |
| 2026-04-24 03:39 | 43.11167 | -76.04046 | 2298 ft | 207 kts | 68° |
| 2026-04-24 03:40 | 43.11969 | -76.02378 | 2738 ft | 218 kts | 38° |
| 2026-04-24 03:40 | 43.13377 | -76.01491 | 3166 ft | 233 kts | 6° |
| 2026-04-24 03:40 | 43.15030 | -76.01718 | 3630 ft | 247 kts | 347° |
| 2026-04-24 03:40 | 43.16730 | -76.02381 | 4161 ft | 262 kts | 338° |
| 2026-04-24 03:41 | 43.18369 | -76.03589 | 4706 ft | 268 kts | 325° |
| 2026-04-24 03:41 | 43.19596 | -76.04987 | 5149 ft | 262 kts | 317° |
| 2026-04-24 03:41 | 43.20762 | -76.06895 | 5161 ft | 261 kts | 307° |
| 2026-04-24 03:41 | 43.21769 | -76.08960 | 4861 ft | 260 kts | 300° |
| 2026-04-24 03:42 | 43.22458 | -76.11265 | 4882 ft | 263 kts | 290° |
| 2026-04-24 03:42 | 43.23006 | -76.13636 | 4993 ft | 264 kts | 289° |
| 2026-04-24 03:42 | 43.23516 | -76.16057 | 5002 ft | 264 kts | 287° |
| 2026-04-24 03:42 | 43.24084 | -76.18452 | 5001 ft | 264 kts | 292° |
| 2026-04-24 03:43 | 43.24729 | -76.20804 | 5000 ft | 264 kts | 293° |
| 2026-04-24 03:43 | 43.25381 | -76.23151 | 4924 ft | 259 kts | 291° |
| 2026-04-24 03:43 | 43.26047 | -76.25389 | 4658 ft | 251 kts | 296° |
| 2026-04-24 03:43 | 43.26704 | -76.27643 | 4075 ft | 259 kts | 284° |
| 2026-04-24 03:44 | 43.26653 | -76.30122 | 3575 ft | 265 kts | 256° |
| 2026-04-24 03:44 | 43.25736 | -76.32301 | 3260 ft | 267 kts | 227° |
| 2026-04-24 03:44 | 43.24231 | -76.33809 | 3200 ft | 270 kts | 215° |
| 2026-04-24 03:44 | 43.22693 | -76.35292 | 3198 ft | 270 kts | 219° |
| 2026-04-24 03:45 | 43.21204 | -76.36865 | 3199 ft | 270 kts | 220° |
| 2026-04-24 03:45 | 43.19737 | -76.38468 | 3198 ft | 270 kts | 220° |
| 2026-04-24 03:45 | 43.18272 | -76.40069 | 3199 ft | 270 kts | 220° |
| 2026-04-24 03:45 | 43.16795 | -76.41663 | 3202 ft | 270 kts | 220° |
| 2026-04-24 03:46 | 43.15313 | -76.43240 | 3202 ft | 270 kts | 219° |
| 2026-04-24 03:46 | 43.13765 | -76.44630 | 3193 ft | 273 kts | 202° |
| 2026-04-24 03:46 | 43.11895 | -76.44857 | 3201 ft | 273 kts | 168° |
| 2026-04-24 03:46 | 43.10242 | -76.43650 | 3200 ft | 272 kts | 133° |
| 2026-04-24 03:47 | 43.09356 | -76.41427 | 3199 ft | 268 kts | 99° |
| 2026-04-24 03:47 | 43.09459 | -76.38924 | 3209 ft | 264 kts | 74° |
| 2026-04-24 03:47 | 43.09875 | -76.36464 | 3196 ft | 263 kts | 76° |
| 2026-04-24 03:47 | 43.10132 | -76.34071 | 3190 ft | 246 kts | 83° |
| 2026-04-24 03:48 | 43.10215 | -76.31811 | 3162 ft | 230 kts | 86° |
| 2026-04-24 03:48 | 43.10265 | -76.29661 | 2910 ft | 223 kts | 85° |
| 2026-04-24 03:48 | 43.10336 | -76.27597 | 2582 ft | 210 kts | 85° |
| 2026-04-24 03:48 | 43.10399 | -76.25659 | 2295 ft | 198 kts | 85° |
| 2026-04-24 03:49 | 43.10456 | -76.23836 | 2045 ft | 186 kts | 85° |
| 2026-04-24 03:49 | 43.10506 | -76.22115 | 1761 ft | 176 kts | 85° |
| 2026-04-24 03:49 | 43.10548 | -76.20504 | 1515 ft | 166 kts | 85° |
| 2026-04-24 03:49 | 43.10600 | -76.18955 | 1306 ft | 156 kts | 84° |
| 2026-04-24 03:50 | 43.10650 | -76.17490 | 1115 ft | 154 kts | 84° |
| 2026-04-24 03:50 | 43.10707 | -76.16028 | 953 ft | 154 kts | 84° |
| 2026-04-24 03:50 | 43.10751 | -76.14581 | 741 ft | 154 kts | 86° |
| 2026-04-24 03:50 | 43.10799 | -76.13121 | 544 ft | 153 kts | 85° |
| 2026-04-24 03:51 | 43.10856 | -76.11681 | 417 ft | 145 kts | 87° |
| 2026-04-24 03:51 | 43.10895 | -76.10614 | 433 ft | 70 kts | 87° |
| 2026-04-24 03:51 | 43.10906 | -76.10147 | 423 ft | 45 kts | 88° |
| 2026-04-24 03:51 | 43.10894 | -76.09878 | 431 ft | 18 kts | 98° |
| 2026-04-24 03:52 | 43.10916 | -76.09816 | 423 ft | 4 kts | 4° |
| 2026-04-24 03:52 | 43.10998 | -76.09934 | 417 ft | 22 kts | 305° |
| 2026-04-24 03:52 | 43.11026 | -76.10124 | 428 ft | 20 kts | 269° |
| 2026-04-24 03:52 | 43.11020 | -76.10331 | 422 ft | 22 kts | 268° |
| 2026-04-24 03:53 | 43.11012 | -76.10545 | 422 ft | 23 kts | 266° |
| 2026-04-24 03:53 | 43.11005 | -76.10749 | 422 ft | 20 kts | 267° |